Time;durP1;ratioP1;P1;durP2;ratioP2;P2;SDS_P1;SDS_P2;PMS_P1;PMS_P2;Temp;Humidity;BMP_temperature;BMP_pressure;BME280_temperature;BME280_humidity;BME280_pressure;Samples;Min_cycle;Max_cycle;Signal;HPM_P1;HPM_P2
2023/03/25 00:02:15;;;;;;;14.33;8.67;;;;;;;14.02;52.70;94360.75;5031238;28;20191;-53
2023/03/25 00:04:42;;;;;;;12.13;9.23;;;;;;;14.00;52.67;94365.28;5031574;28;20195;-52
2023/03/25 00:07:09;;;;;;;12.53;8.33;;;;;;;13.97;52.59;94355.31;5030880;28;20574;-53
2023/03/25 00:09:36;;;;;;;13.03;8.87;;;;;;;13.99;52.56;94368.03;5031029;28;20277;-56
2023/03/25 00:12:03;;;;;;;12.63;9.23;;;;;;;13.94;52.46;94359.97;5025893;28;20636;-53
2023/03/25 00:14:31;;;;;;;12.00;8.50;;;;;;;13.92;52.75;94354.22;5011212;28;20691;-52
2023/03/25 00:17:00;;;;;;;12.03;8.50;;;;;;;13.93;52.70;94360.97;5013056;28;20193;-54
2023/03/25 00:19:27;;;;;;;13.10;8.87;;;;;;;13.86;52.87;94348.00;5016951;28;20187;-52
2023/03/25 00:21:53;;;;;;;11.70;8.97;;;;;;;13.89;52.88;94350.22;5017030;28;20185;-52
2023/03/25 00:24:20;;;;;;;12.07;8.87;;;;;;;13.87;52.98;94344.44;5015934;28;20196;-54
2023/03/25 00:26:47;;;;;;;13.30;8.60;;;;;;;13.86;52.97;94342.84;5016189;28;20191;-55
2023/03/25 00:29:15;;;;;;;12.13;8.70;;;;;;;13.85;52.85;94337.84;5016646;28;20195;-53
2023/03/25 00:31:43;;;;;;;13.33;8.87;;;;;;;13.83;53.00;94338.03;5016005;28;20208;-52
2023/03/25 00:34:13;;;;;;;12.93;9.10;;;;;;;13.81;53.01;94339.94;5016709;28;20211;-52
2023/03/25 00:36:42;;;;;;;11.37;8.50;;;;;;;13.78;53.20;94337.72;5016218;28;20570;-52
2023/03/25 00:39:09;;;;;;;13.40;8.73;;;;;;;13.77;53.03;94341.25;5015756;28;20223;-52
2023/03/25 00:41:36;;;;;;;13.70;8.00;;;;;;;13.76;53.07;94342.22;5016255;28;20192;-53
2023/03/25 00:44:04;;;;;;;16.27;9.23;;;;;;;13.74;53.21;94339.81;5016326;28;20219;-52
2023/03/25 00:46:32;;;;;;;13.17;8.73;;;;;;;13.25;53.29;94259.50;5016043;28;20184;-54
2023/03/25 00:49:01;;;;;;;14.03;9.03;;;;;;;13.65;53.22;94325.41;5016177;28;20557;-52
2023/03/25 00:51:30;;;;;;;11.23;8.47;;;;;;;13.69;53.57;94326.69;5014649;28;20201;-52
2023/03/25 00:53:59;;;;;;;11.97;8.27;;;;;;;13.68;53.44;94330.19;5015768;28;20721;-52
2023/03/25 00:56:26;;;;;;;13.63;8.27;;;;;;;13.64;53.44;94326.34;5015858;28;20195;-51
2023/03/25 00:58:53;;;;;;;11.03;8.50;;;;;;;13.66;53.44;94326.19;5016127;28;20198;-53
2023/03/25 01:01:22;;;;;;;10.03;7.83;;;;;;;13.64;53.53;94325.53;5015669;28;20246;-51
2023/03/25 01:03:56;;;;;;;13.30;8.43;;;;;;;13.40;53.78;94288.69;5016114;28;20198;-55
2023/03/25 01:06:28;;;;;;;15.43;8.23;;;;;;;13.58;53.59;94321.88;5015722;28;20663;-54
2023/03/25 01:08:56;;;;;;;10.13;8.07;;;;;;;13.56;53.80;94313.56;5015502;28;20176;-56
2023/03/25 01:11:25;;;;;;;22.90;8.67;;;;;;;13.54;53.95;94311.13;5015840;28;20309;-51
2023/03/25 01:13:53;;;;;;;12.90;8.10;;;;;;;13.48;53.80;94303.28;5016219;28;20266;-51
2023/03/25 01:16:20;;;;;;;11.80;8.60;;;;;;;13.52;53.87;94312.28;5014819;28;20192;-54
2023/03/25 01:18:47;;;;;;;11.97;8.43;;;;;;;13.50;53.90;94312.41;5015216;28;20196;-52
2023/03/25 01:21:14;;;;;;;9.47;7.73;;;;;;;13.48;53.95;94304.09;5015592;28;20196;-53
2023/03/25 01:23:42;;;;;;;17.43;7.63;;;;;;;13.47;53.95;94296.53;5017630;28;20576;-51
2023/03/25 01:26:09;;;;;;;10.13;7.67;;;;;;;13.46;54.24;94294.94;5015588;28;20183;-53
2023/03/25 01:28:36;;;;;;;9.57;7.90;;;;;;;13.44;53.86;94289.19;5014733;28;20637;-51
2023/03/25 01:31:04;;;;;;;13.70;8.00;;;;;;;13.42;53.97;94281.63;5014758;28;20623;-54
2023/03/25 01:33:31;;;;;;;10.97;7.30;;;;;;;13.38;54.06;94280.34;5015559;28;20204;-53
2023/03/25 01:35:58;;;;;;;13.40;7.87;;;;;;;13.39;54.28;94281.97;5015713;28;20271;-53
2023/03/25 01:38:25;;;;;;;12.33;8.57;;;;;;;13.40;54.14;94283.56;5015427;28;20254;-51
2023/03/25 01:40:54;;;;;;;10.77;7.90;;;;;;;13.37;54.33;94281.31;5014369;28;20202;-52
2023/03/25 01:43:22;;;;;;;11.33;7.90;;;;;;;13.33;54.41;94272.34;5015005;28;20290;-51
2023/03/25 01:45:49;;;;;;;9.33;7.30;;;;;;;13.34;54.35;94266.22;5015111;28;20722;-51
2023/03/25 01:48:21;;;;;;;10.40;8.10;;;;;;;13.30;54.32;94265.78;5014573;28;20250;-51
2023/03/25 01:50:53;;;;;;;10.13;7.50;;;;;;;13.32;54.19;94272.50;5014341;28;20184;-53
2023/03/25 01:53:20;;;;;;;9.00;7.47;;;;;;;13.30;54.40;94265.78;5015418;28;20235;-51
2023/03/25 01:55:48;;;;;;;10.67;7.70;;;;;;;13.30;54.45;94277.81;5015412;28;20195;-53
2023/03/25 01:58:18;;;;;;;11.17;7.27;;;;;;;13.27;54.41;94273.00;5015078;28;20564;-58
2023/03/25 02:00:47;;;;;;;10.23;6.93;;;;;;;13.20;54.45;94259.97;5015162;28;20177;-53
2023/03/25 02:03:15;;;;;;;7.53;6.53;;;;;;;13.26;54.52;94274.78;5014837;28;20286;-57
2023/03/25 02:05:48;;;;;;;8.67;7.23;;;;;;;13.24;54.65;94271.56;5014840;28;20180;-55
2023/03/25 02:08:15;;;;;;;9.10;7.27;;;;;;;13.22;54.78;94268.38;5014639;28;20175;-52
2023/03/25 02:10:46;;;;;;;9.70;7.43;;;;;;;13.21;54.70;94263.34;5015183;28;20278;-57
2023/03/25 02:13:14;;;;;;;9.73;7.73;;;;;;;13.18;54.73;94264.50;5014278;28;20212;-57
2023/03/25 02:16:08;;;;;;;9.37;7.07;;;;;;;13.17;55.00;94262.91;5015267;28;20314;-50
2023/03/25 02:18:44;;;;;;;11.63;7.80;;;;;;;13.16;54.81;94260.47;5014784;28;20192;-57
2023/03/25 02:21:34;;;;;;;9.97;7.40;;;;;;;13.13;54.84;94269.31;5015670;28;20283;-52
2023/03/25 02:24:34;;;;;;;10.20;7.43;;;;;;;13.11;55.16;94255.81;5014808;28;20195;-51
2023/03/25 02:27:27;;;;;;;10.03;7.77;;;;;;;13.09;55.18;94251.84;5014262;28;20192;-55
2023/03/25 02:30:30;;;;;;;9.97;7.70;;;;;;;13.06;55.03;94253.75;5015011;28;20188;-51
2023/03/25 02:33:30;;;;;;;10.63;7.50;;;;;;;12.90;55.26;94233.25;5014685;28;20338;-52
2023/03/25 02:36:23;;;;;;;10.77;7.03;;;;;;;13.04;55.18;94254.91;5014813;28;20627;-56
2023/03/25 02:38:58;;;;;;;10.27;7.77;;;;;;;12.98;55.19;94250.41;5015093;28;20184;-51
2023/03/25 02:41:34;;;;;;;11.87;8.07;;;;;;;13.00;55.35;94253.63;5014789;28;20598;-52
2023/03/25 02:44:05;;;;;;;9.63;7.50;;;;;;;13.00;55.34;94248.50;5014834;28;20196;-56
2023/03/25 02:46:35;;;;;;;9.17;6.87;;;;;;;12.99;55.43;94246.88;5014840;28;20691;-52
2023/03/25 02:49:06;;;;;;;8.50;6.73;;;;;;;12.97;55.32;94254.75;5014621;28;20227;-50
2023/03/25 02:51:37;;;;;;;8.73;7.57;;;;;;;12.96;55.28;94248.00;5014537;28;20183;-53
2023/03/25 02:54:09;;;;;;;9.03;7.07;;;;;;;12.95;55.41;94241.28;5013931;28;20286;-53
2023/03/25 02:56:40;;;;;;;10.03;7.70;;;;;;;12.93;55.40;94250.09;5015367;28;20210;-51
2023/03/25 02:59:13;;;;;;;8.27;7.00;;;;;;;12.90;55.68;94240.94;5014272;28;20176;-54
2023/03/25 03:01:40;;;;;;;10.63;7.33;;;;;;;12.91;55.81;94242.56;5014919;28;20278;-51
2023/03/25 03:04:07;;;;;;;11.47;8.07;;;;;;;12.92;55.61;94246.72;5017317;28;20199;-52
2023/03/25 03:06:39;;;;;;;10.83;8.03;;;;;;;12.90;55.63;94240.16;5017960;28;20192;-51
2023/03/25 03:09:21;;;;;;;8.87;7.13;;;;;;;12.89;55.48;94239.34;5018132;28;20181;-52
2023/03/25 03:12:03;;;;;;;8.77;7.30;;;;;;;12.88;55.80;94234.38;5017715;28;20736;-54
2023/03/25 03:14:41;;;;;;;8.27;7.03;;;;;;;12.86;55.56;94238.88;5018325;28;20657;-51
2023/03/25 03:17:17;;;;;;;9.60;7.37;;;;;;;12.84;55.67;94241.59;5017481;28;20200;-51
2023/03/25 03:19:49;;;;;;;10.57;7.23;;;;;;;12.81;55.85;94237.59;5017562;28;20853;-50
2023/03/25 03:22:39;;;;;;;9.60;7.27;;;;;;;12.78;55.85;94235.38;5017969;28;20191;-53
2023/03/25 03:25:18;;;;;;;9.17;7.60;;;;;;;12.79;55.94;94242.09;5017646;28;20917;-55
2023/03/25 03:27:49;;;;;;;9.43;7.27;;;;;;;12.79;55.96;94254.13;5018053;28;20182;-51
2023/03/25 03:30:22;;;;;;;9.83;7.50;;;;;;;12.79;55.85;94241.28;5017034;28;20184;-52
2023/03/25 03:32:53;;;;;;;10.80;7.57;;;;;;;12.71;55.94;94231.84;5018141;28;20239;-54
2023/03/25 03:35:24;;;;;;;8.80;7.30;;;;;;;12.73;55.83;94229.09;5017367;28;20311;-51
2023/03/25 03:37:57;;;;;;;8.53;6.87;;;;;;;12.74;56.07;94252.03;5018037;28;20264;-57
2023/03/25 03:40:29;;;;;;;9.10;6.63;;;;;;;12.71;56.04;94249.00;5016979;28;20175;-53
2023/03/25 03:42:59;;;;;;;8.00;6.93;;;;;;;12.72;56.03;94251.41;5017768;28;20188;-51
2023/03/25 03:45:31;;;;;;;7.77;6.97;;;;;;;12.72;56.22;94256.53;5018253;28;20186;-51
2023/03/25 03:48:00;;;;;;;8.17;6.43;;;;;;;12.71;56.22;94247.22;5017445;28;20185;-51
2023/03/25 03:50:31;;;;;;;9.20;7.57;;;;;;;12.69;56.17;94253.47;5017465;28;20185;-54
2023/03/25 03:53:09;;;;;;;8.70;7.27;;;;;;;12.68;56.32;94247.53;5017140;28;20330;-54
2023/03/25 03:55:41;;;;;;;10.37;7.30;;;;;;;12.67;56.34;94256.22;5017087;28;20273;-52
2023/03/25 03:58:14;;;;;;;8.00;6.97;;;;;;;12.47;56.32;94224.94;5017408;28;20192;-53
2023/03/25 04:00:48;;;;;;;8.57;7.70;;;;;;;12.65;56.47;94257.31;5017127;28;20212;-51
2023/03/25 04:03:22;;;;;;;9.20;7.17;;;;;;;12.63;56.42;94254.13;5017675;28;20189;-52
2023/03/25 04:05:55;;;;;;;10.33;7.30;;;;;;;12.61;56.50;94256.03;5016888;28;20187;-53
2023/03/25 04:08:27;;;;;;;10.87;7.27;;;;;;;12.53;56.49;94244.03;5017727;28;20191;-51
2023/03/25 04:10:59;;;;;;;11.33;7.40;;;;;;;12.60;56.48;94249.31;5016355;28;20662;-52
2023/03/25 04:13:31;;;;;;;7.90;7.10;;;;;;;12.59;56.51;94251.06;5016661;28;20188;-51
2023/03/25 04:16:00;;;;;;;10.30;7.57;;;;;;;12.58;56.49;94246.91;5016527;28;20718;-50
2023/03/25 04:18:28;;;;;;;10.07;7.77;;;;;;;12.57;56.38;94247.09;5016479;28;20192;-51
2023/03/25 04:20:55;;;;;;;10.97;7.83;;;;;;;12.56;56.56;94256.53;5016647;28;20176;-51
2023/03/25 04:23:22;;;;;;;10.77;7.33;;;;;;;12.42;56.54;94227.19;5016265;28;20658;-51
2023/03/25 04:25:51;;;;;;;9.00;6.87;;;;;;;12.57;56.71;94244.53;5016150;28;20651;-53
2023/03/25 04:28:20;;;;;;;10.33;7.13;;;;;;;12.57;56.53;94242.75;5017461;28;20251;-51
2023/03/25 04:30:49;;;;;;;8.30;6.77;;;;;;;12.58;56.57;94244.34;5016554;28;20256;-50
2023/03/25 04:33:16;;;;;;;11.43;7.23;;;;;;;12.59;56.84;94247.72;5016567;28;20277;-51
2023/03/25 04:35:43;;;;;;;10.67;7.40;;;;;;;12.63;56.61;94251.56;5016097;28;20311;-55
2023/03/25 04:38:10;;;;;;;9.23;7.33;;;;;;;12.65;56.55;94249.63;5015999;28;20674;-53
2023/03/25 04:40:39;;;;;;;7.77;7.03;;;;;;;12.66;56.66;94257.19;5016216;28;20571;-55
2023/03/25 04:43:06;;;;;;;9.03;7.33;;;;;;;12.70;56.58;94255.09;5016499;28;20184;-53
2023/03/25 04:45:35;;;;;;;9.83;6.87;;;;;;;12.74;56.64;94256.38;5015991;28;20188;-53
2023/03/25 04:48:04;;;;;;;8.37;7.17;;;;;;;12.77;56.35;94251.69;5016930;28;20553;-52
2023/03/25 04:50:32;;;;;;;9.50;7.50;;;;;;;12.80;56.57;94255.72;5017027;28;20908;-51
2023/03/25 04:53:00;;;;;;;9.87;7.90;;;;;;;12.87;56.52;94255.88;5017662;28;20293;-51
2023/03/25 04:55:28;;;;;;;7.97;7.17;;;;;;;12.90;56.61;94256.34;5016741;28;20215;-52
2023/03/25 04:57:55;;;;;;;8.80;7.63;;;;;;;13.01;56.22;94257.78;5015995;28;20247;-52
2023/03/25 05:00:24;;;;;;;8.73;7.83;;;;;;;13.11;56.38;94263.53;5015985;28;20195;-56
2023/03/25 05:02:54;;;;;;;10.37;7.07;;;;;;;13.24;56.40;94247.66;5015953;28;20184;-52
2023/03/25 05:05:22;;;;;;;12.00;8.27;;;;;;;13.42;55.78;94252.56;5016386;28;20289;-53
2023/03/25 05:07:52;;;;;;;11.03;7.90;;;;;;;13.65;55.65;94250.88;5015880;28;20901;-52
2023/03/25 05:10:20;;;;;;;11.57;7.57;;;;;;;13.98;54.97;94259.22;5015092;28;20180;-54
2023/03/25 05:12:48;;;;;;;8.27;7.10;;;;;;;14.41;54.92;94254.47;5015858;28;20286;-51
2023/03/25 05:15:16;;;;;;;9.00;7.30;;;;;;;14.96;55.25;94260.34;5015869;28;20204;-53
2023/03/25 05:17:43;;;;;;;9.30;7.57;;;;;;;15.61;55.29;94258.84;5015815;28;20179;-52
2023/03/25 05:20:13;;;;;;;9.40;7.73;;;;;;;16.33;55.39;94261.50;5015718;28;20238;-53
2023/03/25 05:22:40;;;;;;;12.40;7.53;;;;;;;17.04;55.30;94254.56;5015817;28;20187;-54
2023/03/25 05:25:09;;;;;;;9.13;7.23;;;;;;;17.94;54.90;94259.88;5014806;28;20192;-54
2023/03/25 05:27:38;;;;;;;11.47;7.00;;;;;;;18.76;54.38;94258.88;5014924;28;20191;-56
2023/03/25 05:30:07;;;;;;;9.43;7.47;;;;;;;19.65;53.79;94257.63;5016116;28;20623;-52
2023/03/25 05:32:34;;;;;;;8.67;6.57;;;;;;;20.55;52.99;94258.44;5015063;28;20524;-52
2023/03/25 05:35:01;;;;;;;7.53;6.73;;;;;;;21.37;52.08;94251.41;5015235;28;20204;-54
2023/03/25 05:37:30;;;;;;;9.70;5.87;;;;;;;22.32;51.35;94253.56;5014918;28;20191;-51
2023/03/25 05:39:57;;;;;;;7.20;6.50;;;;;;;23.17;50.21;94266.38;5015173;28;20613;-58
2023/03/25 05:42:24;;;;;;;8.07;7.05;;;;;;;23.83;49.32;94245.34;5014751;28;20574;-52
2023/03/25 05:44:52;;;;;;;10.13;6.53;;;;;;;24.74;48.60;94265.38;5015594;28;20210;-54
2023/03/25 05:47:20;;;;;;;7.13;6.30;;;;;;;25.44;47.79;94271.22;5016401;28;20211;-54
2023/03/25 05:49:48;;;;;;;6.90;5.72;;;;;;;26.10;46.67;94266.84;5014907;28;20196;-58
2023/03/25 05:52:16;;;;;;;8.90;6.30;;;;;;;26.80;45.96;94275.72;5017307;28;20212;-53
2023/03/25 05:54:45;;;;;;;6.82;5.82;;;;;;;27.52;45.52;94264.75;5015891;28;20236;-56
2023/03/25 05:57:13;;;;;;;9.38;6.35;;;;;;;28.32;44.61;94269.88;5015616;28;20188;-59
2023/03/25 05:59:40;;;;;;;9.70;6.30;;;;;;;29.02;43.80;94267.69;5015695;28;20185;-54
2023/03/25 06:02:07;;;;;;;6.75;5.72;;;;;;;29.71;42.88;94275.03;5015172;28;20208;-55
2023/03/25 06:04:40;;;;;;;14.38;6.47;;;;;;;30.41;42.27;94266.34;5014797;28;20188;-57
2023/03/25 06:07:12;;;;;;;9.38;6.22;;;;;;;31.00;41.16;94249.63;5014831;28;20676;-59
2023/03/25 06:09:44;;;;;;;5.60;4.93;;;;;;;31.72;40.75;94265.66;5015100;28;20187;-56
2023/03/25 06:12:13;;;;;;;7.22;5.88;;;;;;;32.32;39.96;94263.41;5015316;28;20219;-55
2023/03/25 06:14:44;;;;;;;7.15;5.70;;;;;;;32.86;39.20;94254.22;5015909;28;20912;-54
2023/03/25 06:17:11;;;;;;;10.65;4.32;;;;;;;33.41;38.86;94258.91;5009763;28;20192;-66
2023/03/25 06:19:41;;;;;;;3.92;3.13;;;;;;;33.52;37.58;94263.00;5021014;28;20188;-60
2023/03/25 06:22:10;;;;;;;5.32;3.83;;;;;;;33.41;37.34;94265.00;5012799;28;20291;-60
2023/03/25 06:24:36;;;;;;;3.42;3.13;;;;;;;33.26;36.87;94259.19;5009403;28;20207;-57
2023/03/25 06:27:05;;;;;;;7.45;3.83;;;;;;;33.12;36.34;94257.28;5009614;28;20231;-59
2023/03/25 06:29:35;;;;;;;5.20;3.65;;;;;;;33.03;36.15;94268.81;5009455;28;20195;-58
2023/03/25 06:32:02;;;;;;;6.97;3.55;;;;;;;32.89;35.80;94261.56;5009671;28;20191;-59
2023/03/25 06:34:31;;;;;;;4.07;3.63;;;;;;;32.82;36.08;94263.81;5010349;28;20195;-57
2023/03/25 06:36:58;;;;;;;4.85;3.70;;;;;;;32.77;35.86;94260.44;5011570;28;20643;-63
2023/03/25 06:39:25;;;;;;;6.70;3.88;;;;;;;32.72;35.59;94271.88;5013497;28;20192;-58
2023/03/25 06:41:52;;;;;;;7.15;3.78;;;;;;;32.69;35.45;94272.47;5014332;28;20227;-59
2023/03/25 06:44:19;;;;;;;7.28;4.25;;;;;;;32.64;35.42;94273.34;5013185;28;20652;-60
2023/03/25 06:46:47;;;;;;;5.47;3.95;;;;;;;32.56;35.35;94268.69;5023276;28;20191;-59
2023/03/25 06:49:14;;;;;;;7.90;4.90;;;;;;;32.55;34.94;94277.69;5018207;28;20200;-60
2023/03/25 06:51:41;;;;;;;7.05;4.75;;;;;;;32.44;34.72;94271.75;5014721;28;20279;-59
2023/03/25 06:54:08;;;;;;;9.90;4.60;;;;;;;32.44;34.67;94284.97;5014862;28;20657;-59
2023/03/25 06:56:35;;;;;;;7.90;4.28;;;;;;;32.43;34.49;94285.28;5013055;28;20212;-62
2023/03/25 06:59:02;;;;;;;10.48;4.95;;;;;;;32.42;34.47;94286.31;5013021;28;20634;-60
2023/03/25 07:01:29;;;;;;;12.35;4.72;;;;;;;32.33;34.51;94274.78;5018166;28;20195;-58
2023/03/25 07:03:57;;;;;;;5.20;4.60;;;;;;;32.44;34.47;94281.56;5032632;28;20209;-58
2023/03/25 07:06:24;;;;;;;8.20;4.65;;;;;;;32.38;34.58;94287.97;5030305;28;20191;-61
2023/03/25 07:08:52;;;;;;;8.48;4.72;;;;;;;32.29;34.56;94279.06;5013594;28;20222;-65
2023/03/25 07:11:25;;;;;;;8.20;5.68;;;;;;;32.23;34.42;94276.47;5012716;28;20200;-65
2023/03/25 07:13:52;;;;;;;5.93;4.72;;;;;;;32.12;34.74;94261.00;5022947;28;20203;-63
2023/03/25 07:16:19;;;;;;;6.13;5.22;;;;;;;32.17;34.58;94277.63;5032342;28;20335;-57
2023/03/25 07:18:46;;;;;;;9.43;5.07;;;;;;;32.17;34.50;94272.31;5030695;28;20659;-58
2023/03/25 07:21:15;;;;;;;5.88;5.18;;;;;;;32.16;34.41;94267.31;5019460;28;20188;-59
2023/03/25 07:23:41;;;;;;;8.13;5.20;;;;;;;32.21;34.33;94270.69;5010613;28;20287;-59
2023/03/25 07:26:08;;;;;;;7.75;5.18;;;;;;;32.22;34.45;94285.50;5010409;28;20196;-60
2023/03/25 07:28:36;;;;;;;23.50;5.55;;;;;;;32.15;34.60;94278.97;5030235;28;20196;-56
2023/03/25 07:31:06;;;;;;;13.10;5.85;;;;;;;31.94;34.77;94252.72;5028454;28;20219;-57
2023/03/25 07:33:33;;;;;;;12.95;5.63;;;;;;;32.06;34.52;94281.44;5031749;28;20697;-56
2023/03/25 07:36:00;;;;;;;15.50;6.05;;;;;;;32.02;34.94;94280.44;5032228;28;20223;-60
2023/03/25 07:38:28;;;;;;;12.73;5.82;;;;;;;32.05;35.11;94271.94;5032055;28;20199;-56
2023/03/25 07:40:55;;;;;;;14.10;5.25;;;;;;;32.07;35.03;94272.44;5032134;28;20191;-57
2023/03/25 07:43:22;;;;;;;10.75;6.20;;;;;;;32.08;34.98;94270.56;5031971;28;20198;-65
2023/03/25 07:45:48;;;;;;;16.20;6.35;;;;;;;32.04;33.69;94262.44;5031618;28;20196;-60
2023/03/25 07:48:15;;;;;;;18.15;6.30;;;;;;;32.00;33.26;94263.28;5031285;28;20195;-56
2023/03/25 07:50:44;;;;;;;7.97;5.50;;;;;;;31.99;33.69;94259.81;5023656;28;20192;-56
2023/03/25 07:53:11;;;;;;;9.55;5.88;;;;;;;32.02;33.73;94258.47;5016718;28;20223;-56
2023/03/25 07:55:39;;;;;;;13.30;5.80;;;;;;;31.94;33.32;94250.09;5029860;28;20281;-57
2023/03/25 07:58:06;;;;;;;11.48;5.65;;;;;;;31.88;33.29;94247.81;5029042;28;20629;-58
2023/03/25 08:00:33;;;;;;;7.97;5.60;;;;;;;31.85;33.43;94246.50;5010442;28;20193;-60
2023/03/25 08:03:00;;;;;;;7.65;5.50;;;;;;;31.83;33.26;94242.53;5010382;28;20629;-59
2023/03/25 08:05:27;;;;;;;15.13;5.38;;;;;;;31.79;33.57;94239.66;5027822;28;20187;-56
2023/03/25 08:07:54;;;;;;;9.43;5.85;;;;;;;31.74;33.25;94234.44;5029652;28;20180;-58
2023/03/25 08:10:22;;;;;;;7.18;5.40;;;;;;;31.69;33.40;94229.19;5011737;28;20191;-57
2023/03/25 08:12:52;;;;;;;9.15;5.95;;;;;;;31.57;33.84;94220.88;5017593;28;20195;-61
2023/03/25 08:15:19;;;;;;;6.63;5.35;;;;;;;31.61;33.68;94224.53;5015309;28;20761;-65
2023/03/25 08:17:46;;;;;;;7.13;5.35;;;;;;;31.53;33.86;94227.78;5009709;28;20216;-63
2023/03/25 08:20:13;;;;;;;7.18;5.90;;;;;;;31.50;33.84;94217.78;5009773;28;20200;-56
2023/03/25 08:22:40;;;;;;;8.10;5.63;;;;;;;31.49;33.91;94222.28;5011156;28;20275;-62
2023/03/25 08:25:08;;;;;;;10.55;5.82;;;;;;;31.37;33.87;94217.38;5009647;28;20295;-59
2023/03/25 08:27:35;;;;;;;9.07;6.25;;;;;;;31.17;33.99;94213.00;5011963;28;20188;-56
2023/03/25 08:30:04;;;;;;;8.50;6.43;;;;;;;30.99;34.30;94216.34;5020310;28;20204;-63
2023/03/25 08:32:31;;;;;;;7.30;6.00;;;;;;;30.79;34.26;94209.41;5021897;28;20193;-57
2023/03/25 08:34:58;;;;;;;7.20;6.22;;;;;;;30.69;34.69;94215.50;5008820;28;20223;-60
2023/03/25 08:37:25;;;;;;;9.68;5.95;;;;;;;30.57;34.60;94212.44;5022474;28;20184;-63
2023/03/25 08:39:54;;;;;;;10.27;6.00;;;;;;;30.46;35.02;94206.41;5028447;28;20184;-56
2023/03/25 08:42:21;;;;;;;12.98;6.10;;;;;;;30.41;34.78;94203.81;5027902;28;20209;-64
2023/03/25 08:44:48;;;;;;;8.40;7.00;;;;;;;30.40;34.81;94206.72;5026851;28;20192;-59
2023/03/25 08:47:16;;;;;;;6.80;6.10;;;;;;;30.42;34.79;94201.97;5022809;28;20290;-62
2023/03/25 08:49:43;;;;;;;9.88;6.85;;;;;;;30.42;34.80;94194.03;5026638;28;20250;-64
2023/03/25 08:52:10;;;;;;;9.07;6.30;;;;;;;30.30;34.44;94191.72;5027630;28;20227;-58
2023/03/25 08:54:36;;;;;;;7.57;6.55;;;;;;;30.10;35.03;94205.81;5026025;28;20532;-65
2023/03/25 08:57:04;;;;;;;10.77;7.57;;;;;;;29.87;35.25;94199.31;5028389;28;20207;-60
2023/03/25 08:59:31;;;;;;;11.68;6.88;;;;;;;29.71;35.43;94198.59;5028302;28;20656;-57
2023/03/25 09:01:58;;;;;;;12.73;7.20;;;;;;;29.58;35.70;94195.72;5028089;28;20195;-59
2023/03/25 09:04:26;;;;;;;7.30;5.82;;;;;;;29.44;35.63;94196.25;5027492;28;20203;-57
2023/03/25 09:06:53;;;;;;;9.77;7.32;;;;;;;29.38;35.66;94191.28;5027694;28;20184;-63
2023/03/25 09:09:20;;;;;;;12.85;6.93;;;;;;;29.33;35.72;94188.66;5014338;28;20551;-56
2023/03/25 09:11:46;;;;;;;8.40;5.80;;;;;;;29.29;35.51;94187.59;5008246;28;20196;-56
2023/03/25 09:14:13;;;;;;;9.70;6.85;;;;;;;29.20;35.78;94180.25;5009163;28;20199;-58
2023/03/25 09:16:41;;;;;;;11.68;6.63;;;;;;;29.10;35.64;94185.53;5009507;28;20216;-56
2023/03/25 09:19:08;;;;;;;12.48;6.53;;;;;;;29.00;35.74;94167.09;5026441;28;20204;-60
2023/03/25 09:21:37;;;;;;;14.38;7.43;;;;;;;28.92;35.99;94157.84;5021036;28;20195;-62
2023/03/25 09:24:04;;;;;;;9.98;6.15;;;;;;;28.99;36.92;94174.22;5019661;28;20195;-56
2023/03/25 09:26:31;;;;;;;10.55;6.82;;;;;;;28.89;38.79;94166.31;5013510;28;20266;-62
2023/03/25 09:28:59;;;;;;;22.27;7.10;;;;;;;28.84;40.34;94170.78;5015465;28;20219;-59
2023/03/25 09:31:26;;;;;;;11.30;6.85;;;;;;;28.76;42.70;94164.22;5020167;28;20287;-57
2023/03/25 09:33:53;;;;;;;12.55;5.95;;;;;;;28.78;43.86;94162.09;5025948;28;20306;-57
2023/03/25 09:36:20;;;;;;;10.70;7.07;;;;;;;28.74;45.63;94148.66;5020688;28;20216;-57
2023/03/25 09:38:48;;;;;;;7.03;6.03;;;;;;;28.84;47.38;94163.66;5016870;28;20212;-57
2023/03/25 09:41:30;;;;;;;10.43;6.57;;;;;;;28.89;48.98;94168.16;5019299;28;20586;-57
2023/03/25 09:44:05;;;;;;;9.40;6.15;;;;;;;28.95;49.65;94159.19;5011383;28;20299;-57
2023/03/25 09:46:32;;;;;;;11.95;6.25;;;;;;;29.06;50.34;94154.72;5022758;28;20200;-58
2023/03/25 09:48:59;;;;;;;10.57;6.47;;;;;;;29.13;51.12;94145.47;5019506;28;20651;-58
2023/03/25 09:51:30;;;;;;;14.80;6.60;;;;;;;29.18;52.17;94153.38;5027699;28;20192;-56
2023/03/25 09:54:04;;;;;;;6.90;6.00;;;;;;;29.17;53.06;94151.81;5024021;28;20690;-58
2023/03/25 09:56:36;;;;;;;7.03;6.22;;;;;;;29.16;53.93;94147.59;5029267;28;20218;-58
2023/03/25 09:59:07;;;;;;;8.23;5.93;;;;;;;29.16;55.33;94147.59;5025649;28;20238;-58
2023/03/25 10:01:40;;;;;;;9.90;5.90;;;;;;;29.15;56.18;94142.59;5029235;28;20708;-57
2023/03/25 10:04:28;;;;;;;6.20;5.60;;;;;;;29.17;57.00;94143.91;5029199;28;20258;-57
2023/03/25 10:07:03;;;;;;;7.47;5.68;;;;;;;29.23;57.53;94134.94;5023628;28;20226;-60
2023/03/25 10:09:50;;;;;;;7.88;6.25;;;;;;;29.34;57.70;94138.31;5027624;28;20195;-58
2023/03/25 10:12:32;;;;;;;10.75;6.15;;;;;;;29.39;58.37;94121.72;5011571;28;20184;-61
2023/03/25 10:15:12;;;;;;;6.00;5.35;;;;;;;29.50;58.01;94123.25;5009331;28;20192;-58
2023/03/25 10:17:53;;;;;;;9.15;5.88;;;;;;;29.56;58.64;94113.50;5018617;28;20220;-59
2023/03/25 10:20:25;;;;;;;6.90;5.43;;;;;;;29.60;59.06;94107.44;5023834;28;20662;-58
2023/03/25 10:23:03;;;;;;;6.25;5.35;;;;;;;29.69;59.28;94110.28;5029490;28;20184;-58
2023/03/25 10:25:37;;;;;;;7.15;5.88;;;;;;;29.76;58.87;94094.97;5028783;28;20595;-58
2023/03/25 10:28:05;;;;;;;6.35;5.57;;;;;;;29.84;59.49;94098.88;5029019;28;20282;-59
2023/03/25 10:30:36;;;;;;;7.97;5.72;;;;;;;29.90;59.87;94090.66;5026919;28;20187;-59
2023/03/25 10:33:07;;;;;;;6.15;5.10;;;;;;;29.95;59.68;94087.22;5029203;28;20610;-59
2023/03/25 10:35:39;;;;;;;6.60;5.32;;;;;;;30.02;60.22;94089.56;5028399;28;20989;-60
2023/03/25 10:38:12;;;;;;;6.72;5.15;;;;;;;30.03;59.97;94091.13;5029098;28;20198;-61
2023/03/25 10:40:43;;;;;;;13.65;5.45;;;;;;;30.05;60.85;94079.22;5029577;28;20724;-57
2023/03/25 10:43:18;;;;;;;5.75;5.25;;;;;;;30.05;60.95;94084.50;5029518;28;20621;-58
2023/03/25 10:45:47;;;;;;;5.53;4.55;;;;;;;30.06;61.42;94077.41;5028893;28;20190;-57
2023/03/25 10:48:20;;;;;;;5.53;4.82;;;;;;;30.02;62.45;94071.88;5029430;28;20226;-58
2023/03/25 10:50:48;;;;;;;6.70;4.72;;;;;;;29.97;62.33;94074.56;5028383;28;20698;-58
2023/03/25 10:53:20;;;;;;;8.90;5.20;;;;;;;29.89;63.78;94062.72;5028930;28;20235;-61
2023/03/25 10:55:52;;;;;;;5.50;5.00;;;;;;;29.73;63.90;94059.38;5028414;28;20236;-57
2023/03/25 10:58:19;;;;;;;6.78;5.43;;;;;;;29.75;64.56;94061.78;5029015;28;20200;-59
2023/03/25 11:00:46;;;;;;;6.45;4.90;;;;;;;29.75;64.57;94053.88;5027815;28;20245;-57
2023/03/25 11:03:17;;;;;;;5.97;5.35;;;;;;;29.71;64.96;94047.56;5027279;28;20667;-58
2023/03/25 11:05:45;;;;;;;5.70;5.15;;;;;;;29.73;64.65;94048.06;5028460;28;20555;-59
2023/03/25 11:08:14;;;;;;;5.95;5.35;;;;;;;29.77;65.36;94046.47;5028614;28;20191;-57
2023/03/25 11:10:50;;;;;;;5.07;4.68;;;;;;;29.74;65.79;94039.09;5028341;28;20586;-57
2023/03/25 11:13:20;;;;;;;5.18;4.78;;;;;;;29.73;66.05;94030.41;5028718;28;20198;-57
2023/03/25 11:15:48;;;;;;;6.03;4.88;;;;;;;29.55;66.30;94007.28;5028408;28;20200;-58
2023/03/25 11:18:20;;;;;;;6.18;4.85;;;;;;;29.60;67.38;94030.22;5028726;28;20737;-59
2023/03/25 11:20:50;;;;;;;5.82;4.80;;;;;;;29.47;67.62;94021.81;5028245;28;20689;-59
2023/03/25 11:23:25;;;;;;;6.10;5.43;;;;;;;29.42;67.57;94019.22;5029380;28;20599;-57
2023/03/25 11:25:55;;;;;;;5.50;5.00;;;;;;;29.46;67.68;94016.84;5031800;28;20191;-58
2023/03/25 11:28:33;;;;;;;6.07;5.47;;;;;;;29.45;67.44;94020.53;5031236;28;20199;-57
2023/03/25 11:31:08;;;;;;;5.80;5.05;;;;;;;29.47;67.61;94021.03;5031876;28;20187;-60
2023/03/25 11:33:36;;;;;;;5.97;5.47;;;;;;;29.48;67.16;94018.13;5031752;28;20191;-57
2023/03/25 11:36:25;;;;;;;5.93;4.53;;;;;;;29.53;67.33;94004.13;5031864;28;20227;-59
2023/03/25 11:38:56;;;;;;;6.43;5.07;;;;;;;29.57;67.05;93999.91;5031542;28;20732;-59
2023/03/25 11:41:29;;;;;;;5.00;4.50;;;;;;;29.58;66.53;93992.78;5032283;28;20200;-58
2023/03/25 11:43:56;;;;;;;5.00;4.50;;;;;;;29.69;66.46;93999.59;5031917;28;20707;-58